createdAt,value
2023-04-06T00:00:55.020Z,98556.44
2023-04-06T00:03:21.759Z,98556.88
2023-04-06T00:05:49.106Z,98552.25
2023-04-06T00:08:15.876Z,98553.41
2023-04-06T00:10:42.726Z,98552.16
2023-04-06T00:13:09.408Z,98560.28
2023-04-06T00:15:36.376Z,98550.88
2023-04-06T00:18:03.747Z,98553.91
2023-04-06T00:20:30.663Z,98552.25
2023-04-06T00:22:57.420Z,98550.53
2023-04-06T00:25:24.122Z,98545.13
2023-04-06T00:27:51.692Z,98550.34
2023-04-06T00:30:18.754Z,98546.16
2023-04-06T00:32:45.595Z,98539.03
2023-04-06T00:35:12.329Z,98540.81
2023-04-06T00:37:39.061Z,98542.69
2023-04-06T00:40:06.644Z,98538.41
2023-04-06T00:42:33.398Z,98531.19
2023-04-06T00:45:00.964Z,98531.91
2023-04-06T00:47:28.076Z,98529.41
2023-04-06T00:49:55.541Z,98535.56
2023-04-06T00:52:22.734Z,98535.56
2023-04-06T00:54:51.054Z,98533.91
2023-04-06T00:57:19.855Z,98532.22
2023-04-06T00:59:49.361Z,98538.91
2023-04-06T01:02:16.195Z,98532.66
2023-04-06T01:04:48.123Z,98536.09
2023-04-06T01:07:25.935Z,98532.56
2023-04-06T01:10:07.462Z,98527.22
2023-04-06T01:12:36.099Z,98519.16
2023-04-06T01:15:07.787Z,98520.34
2023-04-06T01:17:37.503Z,98520.88
2023-04-06T01:20:10.977Z,98515.13
2023-04-06T01:22:38.559Z,98526.19
2023-04-06T01:25:05.645Z,98516.56
2023-04-06T01:27:39.853Z,98520.88
2023-04-06T01:30:12.504Z,98517.59
2023-04-06T01:32:46.064Z,98516.97
2023-04-06T01:35:15.619Z,98513.00
2023-04-06T01:37:51.732Z,98512.19
2023-04-06T01:40:24.890Z,98510.69
2023-04-06T01:42:52.728Z,98499.81
2023-04-06T01:45:27.805Z,98514.34
2023-04-06T01:47:59.367Z,98507.88
2023-04-06T01:50:27.885Z,98511.97
2023-04-06T01:52:54.984Z,98506.94
2023-04-06T01:55:22.754Z,98502.97
2023-04-06T01:58:07.908Z,98499.72
2023-04-06T02:00:38.542Z,98499.19
2023-04-06T02:03:06.388Z,98496.88
2023-04-06T02:05:38.841Z,98495.84
2023-04-06T02:08:16.884Z,98498.16
2023-04-06T02:10:43.618Z,98500.44
2023-04-06T02:13:19.692Z,98494.94
2023-04-06T02:15:50.778Z,98499.13
2023-04-06T02:18:18.891Z,98500.38
2023-04-06T02:20:46.280Z,98496.50
2023-04-06T02:23:14.067Z,98494.94
2023-04-06T02:25:41.305Z,98494.63
2023-04-06T02:28:08.305Z,98491.59
2023-04-06T02:30:35.731Z,98493.06
2023-04-06T02:33:03.126Z,98490.75
2023-04-06T02:35:37.192Z,98495.16
2023-04-06T02:38:03.961Z,98492.72
2023-04-06T02:40:30.742Z,98484.88
2023-04-06T02:43:02.154Z,98489.16
2023-04-06T02:45:31.995Z,98486.63
2023-04-06T02:48:00.719Z,98488.41
2023-04-06T02:50:28.074Z,98483.31
2023-04-06T02:53:00.022Z,98481.91
2023-04-06T02:55:27.128Z,98484.84
2023-04-06T02:57:53.850Z,98485.75
2023-04-06T03:00:25.721Z,98479.69
2023-04-06T03:02:52.569Z,98479.91
2023-04-06T03:05:19.705Z,98480.00
2023-04-06T03:07:47.519Z,98478.25
2023-04-06T03:10:21.976Z,98474.06
2023-04-06T03:12:49.633Z,98472.38
2023-04-06T03:15:21.669Z,98476.75
2023-04-06T03:17:52.807Z,98475.94
2023-04-06T03:20:32.007Z,98471.53
2023-04-06T03:22:59.841Z,98478.56
2023-04-06T03:25:31.327Z,98480.22
2023-04-06T03:28:02.717Z,98482.53
2023-04-06T03:30:32.545Z,98486.78
2023-04-06T03:32:59.319Z,98485.84
2023-04-06T03:35:29.138Z,98489.81
2023-04-06T03:37:57.467Z,98483.00
2023-04-06T03:40:24.606Z,98490.34
2023-04-06T03:42:51.976Z,98486.59
2023-04-06T03:45:18.889Z,98487.94
2023-04-06T03:47:48.570Z,98485.97
2023-04-06T03:50:15.541Z,98487.47
2023-04-06T03:52:42.258Z,98495.19
2023-04-06T03:55:09.331Z,98488.41
2023-04-06T03:57:37.352Z,98494.00
2023-04-06T04:00:04.665Z,98507.56
2023-04-06T04:02:40.104Z,98506.75
2023-04-06T04:05:07.351Z,98496.31
2023-04-06T04:07:34.111Z,98499.84
2023-04-06T04:10:01.797Z,98500.69
2023-04-06T04:12:28.894Z,98504.22
2023-04-06T04:14:57.440Z,98502.63
2023-04-06T04:17:24.223Z,98504.28
2023-04-06T04:19:50.942Z,98506.16
2023-04-06T04:22:17.672Z,98509.78
2023-04-06T04:24:44.633Z,98505.59
2023-04-06T04:27:11.888Z,98505.34
2023-04-06T04:29:40.141Z,98502.44
2023-04-06T04:32:09.679Z,98511.13
2023-04-06T04:34:36.897Z,98512.78
2023-04-06T04:37:06.182Z,98518.75
2023-04-06T04:39:45.990Z,98514.78
2023-04-06T04:42:12.663Z,98520.53
2023-04-06T04:44:45.040Z,98517.56
2023-04-06T04:47:11.839Z,98514.66
2023-04-06T04:49:44.016Z,98516.44
2023-04-06T04:52:13.194Z,98514.75
2023-04-06T04:54:52.174Z,98510.47
2023-04-06T04:57:25.039Z,98513.91
2023-04-06T04:59:52.144Z,98510.94
2023-04-06T05:02:19.784Z,98510.66
2023-04-06T05:05:07.141Z,98518.28
2023-04-06T05:07:34.018Z,98513.81
2023-04-06T05:10:01.641Z,98516.34
2023-04-06T05:12:33.116Z,98525.72
2023-04-06T05:15:05.993Z,98526.56
2023-04-06T05:17:32.949Z,98525.44
2023-04-06T05:19:59.899Z,98528.72
2023-04-06T05:22:28.105Z,98527.56
2023-04-06T05:25:03.990Z,98531.88
2023-04-06T05:27:31.697Z,98538.28
2023-04-06T05:30:01.462Z,98540.28
2023-04-06T05:32:31.050Z,98542.41
2023-04-06T05:34:58.163Z,98540.34
2023-04-06T05:37:26.090Z,98544.00
2023-04-06T05:39:53.065Z,98545.09
2023-04-06T05:42:21.080Z,98546.78
2023-04-06T05:44:56.954Z,98544.34
2023-04-06T05:47:23.716Z,98551.50
2023-04-06T05:49:58.384Z,98550.47
2023-04-06T05:52:37.178Z,98549.97
2023-04-06T05:55:04.650Z,98543.44
2023-04-06T05:57:32.276Z,98543.03
2023-04-06T05:59:58.974Z,98551.00
2023-04-06T06:02:40.980Z,98544.94
2023-04-06T06:05:11.785Z,98551.34
2023-04-06T06:07:40.690Z,98543.94
2023-04-06T06:10:08.208Z,98554.06
2023-04-06T06:12:37.485Z,98558.59
2023-04-06T06:15:04.699Z,98555.34
2023-04-06T06:17:37.871Z,98555.25
2023-04-06T06:20:07.998Z,98568.84
2023-04-06T06:22:34.844Z,98562.50
2023-04-06T06:25:02.503Z,98556.94
2023-04-06T06:27:29.593Z,98556.75
2023-04-06T06:29:56.578Z,98551.94
2023-04-06T06:32:24.440Z,98553.50
2023-04-06T06:34:53.101Z,98558.13
2023-04-06T06:37:20.519Z,98554.56
2023-04-06T06:39:48.138Z,98561.88
2023-04-06T06:42:14.942Z,98555.09
2023-04-06T06:44:57.197Z,98558.44
2023-04-06T06:47:25.103Z,98560.50
2023-04-06T06:49:51.827Z,98562.56
2023-04-06T06:52:18.594Z,98567.50
2023-04-06T06:54:45.301Z,98570.09
2023-04-06T06:57:11.999Z,98560.88
2023-04-06T06:59:38.741Z,98567.97
2023-04-06T07:02:05.488Z,98570.03
2023-04-06T07:04:32.248Z,98562.53
2023-04-06T07:06:59.007Z,98565.47
2023-04-06T07:09:27.692Z,98572.63
2023-04-06T07:11:54.406Z,98566.81
2023-04-06T07:14:21.104Z,98573.25
2023-04-06T07:16:48.108Z,98567.56
2023-04-06T07:19:15.787Z,98572.38
2023-04-06T07:21:42.871Z,98576.22
2023-04-06T07:24:09.746Z,98565.53
2023-04-06T07:26:36.774Z,98567.44
2023-04-06T07:29:05.179Z,98568.53
2023-04-06T07:31:32.751Z,98580.56
2023-04-06T07:33:59.942Z,98567.94
2023-04-06T07:36:26.641Z,98575.16
2023-04-06T07:38:53.406Z,98568.56
2023-04-06T07:41:20.210Z,98571.88
2023-04-06T07:43:47.240Z,98570.91
2023-04-06T07:46:14.068Z,98574.94
2023-04-06T07:48:40.965Z,98570.44
2023-04-06T07:51:07.977Z,98569.16
2023-04-06T07:53:38.669Z,98566.16
2023-04-06T07:56:05.615Z,98562.88
2023-04-06T07:58:32.449Z,98559.63
2023-04-06T08:00:59.129Z,98553.59
2023-04-06T08:03:26.850Z,98566.97
2023-04-06T08:05:54.137Z,98560.41
2023-04-06T08:08:22.336Z,98555.66
2023-04-06T08:10:49.905Z,98562.59
2023-04-06T08:13:17.308Z,98562.88
2023-04-06T08:15:44.245Z,98566.78
2023-04-06T08:18:11.423Z,98563.97
2023-04-06T08:20:38.126Z,98562.69
2023-04-06T08:23:05.311Z,98558.53
2023-04-06T08:25:32.029Z,98563.50
2023-04-06T08:27:58.772Z,98561.34
2023-04-06T08:30:25.575Z,98563.19
2023-04-06T08:32:52.661Z,98561.19
2023-04-06T08:35:21.045Z,98562.44
2023-04-06T08:37:49.279Z,98562.59
2023-04-06T08:40:16.284Z,98563.94
2023-04-06T08:42:48.228Z,98556.59
2023-04-06T08:45:16.782Z,98557.44
2023-04-06T08:47:43.771Z,98559.00
2023-04-06T08:50:12.753Z,98564.59
2023-04-06T08:52:40.494Z,98559.19
2023-04-06T08:55:07.542Z,98565.69
2023-04-06T08:57:34.786Z,98558.28
2023-04-06T09:00:02.237Z,98552.84
2023-04-06T09:02:29.091Z,98549.31
2023-04-06T09:04:56.100Z,98543.34
2023-04-06T09:07:23.011Z,98536.84
2023-04-06T09:09:49.812Z,98543.97
2023-04-06T09:12:31.812Z,98542.56
2023-04-06T09:14:59.324Z,98541.66
2023-04-06T09:17:27.631Z,98529.06
2023-04-06T09:19:55.191Z,98542.41
2023-04-06T09:22:21.878Z,98537.13
2023-04-06T09:24:51.317Z,98539.28
2023-04-06T09:27:18.626Z,98532.13
2023-04-06T09:29:45.770Z,98531.38
2023-04-06T09:32:13.114Z,98526.75
2023-04-06T09:34:40.218Z,98524.09
2023-04-06T09:37:17.636Z,98521.59
2023-04-06T09:39:44.330Z,98524.84
2023-04-06T09:42:11.317Z,98528.81
2023-04-06T09:44:38.011Z,98524.44
2023-04-06T09:47:08.613Z,98524.25
2023-04-06T09:49:36.471Z,98529.06
2023-04-06T09:52:04.746Z,98527.19
2023-04-06T09:54:32.440Z,98518.69
2023-04-06T09:57:22.390Z,98523.78
2023-04-06T10:00:01.495Z,98523.06
2023-04-06T10:02:34.895Z,98520.09
2023-04-06T10:05:07.751Z,98514.63
2023-04-06T10:07:37.170Z,98523.25
2023-04-06T10:10:08.244Z,98519.81
2023-04-06T10:12:34.933Z,98514.31
2023-04-06T10:15:01.675Z,98506.84
2023-04-06T10:17:28.378Z,98508.41
2023-04-06T10:20:05.368Z,98511.34
2023-04-06T10:22:38.036Z,98509.25
2023-04-06T10:25:05.038Z,98505.25
2023-04-06T10:27:32.281Z,98507.72
2023-04-06T10:30:06.584Z,98511.22
2023-04-06T10:32:37.472Z,98498.59
2023-04-06T10:35:08.569Z,98504.16
2023-04-06T10:38:02.145Z,98496.03
2023-04-06T10:40:29.207Z,98505.97
2023-04-06T10:42:56.990Z,98500.25
2023-04-06T10:45:25.387Z,98500.81
2023-04-06T10:47:55.461Z,98495.69
2023-04-06T10:50:23.176Z,98502.06
2023-04-06T10:53:03.820Z,98489.28
2023-04-06T10:55:31.144Z,98485.72
2023-04-06T10:57:57.867Z,98488.47
2023-04-06T11:00:26.089Z,98485.44
2023-04-06T11:03:01.157Z,98489.25
2023-04-06T11:05:28.037Z,98490.81
2023-04-06T11:07:54.973Z,98482.66
2023-04-06T11:10:22.986Z,98478.09
2023-04-06T11:12:55.747Z,98484.72
2023-04-06T11:15:22.492Z,98478.78
2023-04-06T11:17:50.364Z,98476.38
2023-04-06T11:24:01.248Z,98472.03
2023-04-06T11:26:27.984Z,98458.34
2023-04-06T11:28:54.722Z,98458.16
2023-04-06T11:31:26.728Z,98456.63
2023-04-06T11:33:57.734Z,98442.78
2023-04-06T11:36:24.791Z,98442.72
2023-04-06T11:38:51.523Z,98440.69
2023-04-06T11:41:18.211Z,98439.97
2023-04-06T11:43:49.051Z,98441.00
2023-04-06T11:46:19.211Z,98433.22
2023-04-06T11:48:48.104Z,98437.19
2023-04-06T11:51:22.906Z,98433.06
2023-04-06T11:53:49.617Z,98423.88
2023-04-06T11:56:26.712Z,98432.84
2023-04-06T11:58:55.662Z,98429.97
2023-04-06T12:01:22.584Z,98437.00
2023-04-06T12:03:49.407Z,98427.09
2023-04-06T12:06:16.825Z,98421.97
2023-04-06T12:08:43.753Z,98423.63
2023-04-06T12:11:10.431Z,98416.78
2023-04-06T12:13:37.159Z,98418.06
2023-04-06T12:16:03.950Z,98422.69
2023-04-06T12:18:31.666Z,98414.91
2023-04-06T12:20:58.399Z,98415.75
2023-04-06T12:23:25.102Z,98407.91
2023-04-06T12:25:52.051Z,98409.97
2023-04-06T12:28:19.185Z,98405.25
2023-04-06T12:30:45.933Z,98400.50
2023-04-06T12:33:12.711Z,98400.25
2023-04-06T12:35:40.029Z,98398.59
2023-04-06T12:38:07.140Z,98395.19
2023-04-06T12:40:37.930Z,98395.59
2023-04-06T12:43:04.801Z,98395.34
2023-04-06T12:45:32.623Z,98383.13
2023-04-06T12:47:59.871Z,98388.22
2023-04-06T12:50:27.665Z,98389.00
2023-04-06T12:52:54.484Z,98382.97
2023-04-06T12:55:22.673Z,98385.50
2023-04-06T12:57:49.429Z,98391.81
2023-04-06T13:00:16.833Z,98389.56
2023-04-06T13:02:48.263Z,98388.69
2023-04-06T13:05:19.639Z,98384.91
2023-04-06T13:07:47.708Z,98382.66
2023-04-06T13:10:14.607Z,98381.88
2023-04-06T13:12:41.467Z,98379.22
2023-04-06T13:15:08.610Z,98377.66
2023-04-06T13:17:35.309Z,98369.63
2023-04-06T13:20:02.126Z,98365.16
2023-04-06T13:22:28.813Z,98361.38
2023-04-06T13:24:55.800Z,98359.75
2023-04-06T13:27:22.544Z,98358.06
2023-04-06T13:29:49.272Z,98366.91
2023-04-06T13:32:16.250Z,98359.56
2023-04-06T13:34:46.092Z,98363.22
2023-04-06T13:37:16.893Z,98353.72
2023-04-06T13:39:44.182Z,98354.34
2023-04-06T13:42:11.283Z,98355.25
2023-04-06T13:44:38.020Z,98349.47
2023-04-06T13:47:04.713Z,98351.81
2023-04-06T13:49:31.495Z,98345.69
2023-04-06T13:51:59.945Z,98346.59
2023-04-06T13:54:27.714Z,98346.72
2023-04-06T13:56:54.482Z,98342.28
2023-04-06T13:59:21.156Z,98339.47
2023-04-06T14:01:48.844Z,98339.59
2023-04-06T14:04:15.839Z,98338.19
2023-04-06T14:06:42.629Z,98351.41
2023-04-06T14:09:09.357Z,98343.72
2023-04-06T14:11:36.430Z,98334.88
2023-04-06T14:14:03.369Z,98333.25
2023-04-06T14:16:30.145Z,98336.47
2023-04-06T14:18:59.117Z,98336.22
2023-04-06T14:21:25.883Z,98331.53
2023-04-06T14:23:53.690Z,98330.16
2023-04-06T14:26:20.741Z,98336.09
2023-04-06T14:28:47.673Z,98327.41
2023-04-06T14:31:16.414Z,98341.22
2023-04-06T14:33:43.805Z,98332.00
2023-04-06T14:36:11.011Z,98327.81
2023-04-06T14:38:37.948Z,98326.69
2023-04-06T14:41:04.738Z,98329.59
2023-04-06T14:43:34.182Z,98328.19
2023-04-06T14:46:02.011Z,98328.03
2023-04-06T14:48:29.179Z,98325.75
2023-04-06T14:50:58.903Z,98319.59
2023-04-06T14:53:25.737Z,98316.59
2023-04-06T14:55:52.595Z,98319.25
2023-04-06T14:58:20.752Z,98317.41
2023-04-06T15:00:47.502Z,98311.38
2023-04-06T15:03:14.992Z,98311.72
2023-04-06T15:05:42.247Z,98313.34
2023-04-06T15:08:10.721Z,98315.81
2023-04-06T15:10:37.599Z,98308.56
2023-04-06T15:13:04.356Z,98310.22
2023-04-06T15:15:31.331Z,98314.84
2023-04-06T15:17:58.160Z,98317.16
2023-04-06T15:20:24.955Z,98313.59
2023-04-06T15:22:51.759Z,98306.50
2023-04-06T15:25:18.476Z,98308.44
2023-04-06T15:27:45.445Z,98306.31
2023-04-06T15:30:12.416Z,98303.50
2023-04-06T15:32:39.146Z,98306.47
2023-04-06T15:35:12.893Z,98306.84
2023-04-06T15:37:39.864Z,98303.63
2023-04-06T15:40:07.795Z,98303.34
2023-04-06T15:42:34.490Z,98311.16
2023-04-06T15:45:01.840Z,98303.06
2023-04-06T15:47:28.661Z,98304.72
2023-04-06T15:49:55.420Z,98305.00
2023-04-06T15:52:23.077Z,98308.59
2023-04-06T15:54:50.132Z,98309.47
2023-04-06T15:57:16.835Z,98305.00
2023-04-06T15:59:43.788Z,98307.75
2023-04-06T16:02:10.625Z,98306.13
2023-04-06T16:04:37.538Z,98301.13
2023-04-06T16:07:04.572Z,98311.75
2023-04-06T16:09:31.611Z,98302.16
2023-04-06T16:11:58.341Z,98307.47
2023-04-06T16:14:25.090Z,98299.66
2023-04-06T16:16:51.984Z,98304.81
2023-04-06T16:19:19.693Z,98308.75
2023-04-06T16:21:46.404Z,98297.72
2023-04-06T16:24:13.217Z,98305.22
2023-04-06T16:26:40.736Z,98315.09
2023-04-06T16:29:08.150Z,98307.25
2023-04-06T16:31:34.942Z,98311.03
2023-04-06T16:34:01.823Z,98317.22
2023-04-06T16:36:30.224Z,98316.38
2023-04-06T16:38:58.119Z,98315.53
2023-04-06T16:41:25.717Z,98316.25
2023-04-06T16:43:53.342Z,98317.84
2023-04-06T16:46:20.199Z,98314.53
2023-04-06T16:48:47.136Z,98312.94
2023-04-06T16:51:16.119Z,98312.31
2023-04-06T16:53:42.850Z,98309.50
2023-04-06T16:58:37.930Z,98312.56
2023-04-06T17:01:05.981Z,98311.38
2023-04-06T17:03:34.213Z,98305.78
2023-04-06T17:06:01.396Z,98313.25
2023-04-06T17:08:28.119Z,98310.63
2023-04-06T17:10:59.516Z,98308.53
2023-04-06T17:13:29.528Z,98304.78
2023-04-06T17:15:56.219Z,98319.22
2023-04-06T17:18:23.051Z,98318.56
2023-04-06T17:20:49.733Z,98312.00
2023-04-06T17:23:16.839Z,98317.50
2023-04-06T17:25:43.519Z,98319.16
2023-04-06T17:28:10.243Z,98325.81
2023-04-06T17:30:36.976Z,98324.81
2023-04-06T17:33:03.728Z,98328.97
2023-04-06T17:35:31.117Z,98328.63
2023-04-06T17:37:57.795Z,98333.28
2023-04-06T17:40:24.451Z,98329.13
2023-04-06T17:42:51.303Z,98338.41
2023-04-06T17:45:18.016Z,98342.53
2023-04-06T17:47:44.909Z,98342.84
2023-04-06T17:50:12.206Z,98343.81
2023-04-06T17:52:38.976Z,98348.75
2023-04-06T17:55:05.745Z,98344.81
2023-04-06T17:57:32.412Z,98347.47
2023-04-06T17:59:59.220Z,98352.53
2023-04-06T18:02:26.206Z,98349.78
2023-04-06T18:04:53.490Z,98361.63
2023-04-06T18:07:20.391Z,98366.59
2023-04-06T18:09:47.315Z,98365.97
2023-04-06T18:12:14.075Z,98368.63
2023-04-06T18:14:41.774Z,98370.09
2023-04-06T18:17:08.522Z,98370.03
2023-04-06T18:19:35.610Z,98373.41
2023-04-06T18:22:02.367Z,98379.00
2023-04-06T18:24:41.334Z,98371.53
2023-04-06T18:27:09.668Z,98384.50
2023-04-06T18:29:37.214Z,98386.50
2023-04-06T18:32:05.128Z,98383.47
2023-04-06T18:34:31.973Z,98391.44
2023-04-06T18:37:00.144Z,98387.25
2023-04-06T18:39:27.368Z,98387.41
2023-04-06T18:41:54.097Z,98387.59
2023-04-06T18:44:20.784Z,98385.72
2023-04-06T18:46:47.556Z,98386.56
2023-04-06T18:49:14.835Z,98385.91
2023-04-06T18:51:43.075Z,98391.88
2023-04-06T18:54:09.955Z,98387.22
2023-04-06T18:56:38.552Z,98386.41
2023-04-06T18:59:05.256Z,98392.50
2023-04-06T19:01:33.070Z,98388.97
2023-04-06T19:04:00.629Z,98395.41
2023-04-06T19:06:28.131Z,98390.63
2023-04-06T19:08:55.345Z,98396.53
2023-04-06T19:11:25.287Z,98401.59
2023-04-06T19:13:53.800Z,98403.50
2023-04-06T19:16:20.816Z,98403.63
2023-04-06T19:18:47.562Z,98402.31
2023-04-06T19:21:14.939Z,98403.44
2023-04-06T19:23:41.812Z,98411.75
2023-04-06T19:26:11.361Z,98411.91
2023-04-06T19:28:38.094Z,98411.72
2023-04-06T19:31:08.463Z,98408.97
2023-04-06T19:33:36.528Z,98409.97
2023-04-06T19:36:04.197Z,98405.31
2023-04-06T19:38:31.131Z,98407.84
2023-04-06T19:40:57.813Z,98414.50
2023-04-06T19:43:24.751Z,98404.00
2023-04-06T19:45:51.838Z,98407.13
2023-04-06T19:48:18.511Z,98417.69
2023-04-06T19:50:45.964Z,98413.34
2023-04-06T19:53:13.031Z,98411.16
2023-04-06T19:55:39.760Z,98413.22
2023-04-06T19:58:06.528Z,98407.06
2023-04-06T20:00:33.306Z,98407.78
2023-04-06T20:03:00.306Z,98420.09
2023-04-06T20:05:27.219Z,98416.50
2023-04-06T20:07:54.076Z,98411.50
2023-04-06T20:10:20.960Z,98411.94
2023-04-06T20:12:48.852Z,98417.03
2023-04-06T20:15:15.745Z,98414.53
2023-04-06T20:17:45.697Z,98412.91
2023-04-06T20:20:12.459Z,98413.31
2023-04-06T20:22:39.125Z,98414.44
2023-04-06T20:25:06.791Z,98420.28
2023-04-06T20:27:33.452Z,98421.16
2023-04-06T20:30:00.212Z,98420.53
2023-04-06T20:32:27.494Z,98416.66
2023-04-06T20:34:54.364Z,98419.28
2023-04-06T20:37:21.578Z,98415.66
2023-04-06T20:39:48.540Z,98418.09
2023-04-06T20:42:15.301Z,98419.59
2023-04-06T20:44:42.311Z,98425.41
2023-04-06T20:47:11.624Z,98422.63
2023-04-06T20:49:38.335Z,98424.19
2023-04-06T20:52:05.045Z,98422.38
2023-04-06T20:54:31.777Z,98420.81
2023-04-06T20:57:00.638Z,98411.09
2023-04-06T20:59:27.945Z,98422.66
2023-04-06T21:01:54.693Z,98412.78
2023-04-06T21:04:23.105Z,98418.13
2023-04-06T21:06:50.139Z,98416.19
2023-04-06T21:09:17.394Z,98419.81
2023-04-06T21:11:44.137Z,98422.22
2023-04-06T21:14:11.111Z,98423.88
2023-04-06T21:16:37.804Z,98417.31
2023-04-06T21:19:04.633Z,98417.97
2023-04-06T21:21:31.308Z,98426.81
2023-04-06T21:23:58.626Z,98424.53
2023-04-06T21:26:25.283Z,98417.31
2023-04-06T21:28:51.968Z,98419.75
2023-04-06T21:31:20.132Z,98420.69
2023-04-06T21:33:47.161Z,98419.41
2023-04-06T21:36:14.018Z,98416.31
2023-04-06T21:38:41.079Z,98417.69
2023-04-06T21:41:07.773Z,98417.38
2023-04-06T21:43:34.803Z,98413.06
2023-04-06T21:46:01.750Z,98408.47
2023-04-06T21:48:28.604Z,98416.47
2023-04-06T21:50:55.355Z,98419.88
2023-04-06T21:53:22.208Z,98421.44
2023-04-06T21:55:49.252Z,98424.00
2023-04-06T21:58:16.142Z,98429.44
2023-04-06T22:00:43.292Z,98432.34
2023-04-06T22:03:10.520Z,98429.41
2023-04-06T22:05:40.450Z,98424.22
2023-04-06T22:08:09.540Z,98426.47
2023-04-06T22:10:38.477Z,98420.72
2023-04-06T22:13:05.206Z,98426.03
2023-04-06T22:15:31.851Z,98432.03
2023-04-06T22:17:59.235Z,98427.84
2023-04-06T22:20:26.182Z,98423.81
2023-04-06T22:22:52.897Z,98423.53
2023-04-06T22:25:19.625Z,98421.19
2023-04-06T22:27:46.293Z,98426.03
2023-04-06T22:30:13.049Z,98424.09
2023-04-06T22:32:39.764Z,98423.53
2023-04-06T22:35:07.032Z,98421.34
2023-04-06T22:37:33.814Z,98414.13
2023-04-06T22:40:00.519Z,98409.56
2023-04-06T22:42:27.254Z,98409.25
2023-04-06T22:44:53.936Z,98409.94
2023-04-06T22:47:20.656Z,98406.91
2023-04-06T22:49:47.426Z,98402.75
2023-04-06T22:52:14.180Z,98396.94
2023-04-06T22:54:41.446Z,98414.69
2023-04-06T22:57:08.128Z,98407.59
2023-04-06T22:59:34.825Z,98407.59
2023-04-06T23:02:01.628Z,98408.84
2023-04-06T23:04:28.560Z,98403.56
2023-04-06T23:06:55.341Z,98391.91
2023-04-06T23:09:22.113Z,98394.13
2023-04-06T23:11:49.676Z,98396.78
2023-04-06T23:14:16.725Z,98401.09
2023-04-06T23:16:43.581Z,98398.88
2023-04-06T23:19:10.296Z,98397.34
2023-04-06T23:21:37.159Z,98389.72
2023-04-06T23:24:03.922Z,98383.75
2023-04-06T23:26:30.718Z,98386.25
2023-04-06T23:28:57.432Z,98383.91
2023-04-06T23:31:24.179Z,98383.06
2023-04-06T23:33:50.847Z,98372.41
2023-04-06T23:36:17.504Z,98376.97
2023-04-06T23:38:44.226Z,98372.78
2023-04-06T23:41:14.415Z,98361.16
2023-04-06T23:43:41.398Z,98357.81
2023-04-06T23:46:08.752Z,98359.22
2023-04-06T23:48:35.441Z,98364.88
2023-04-06T23:51:02.140Z,98354.94
2023-04-06T23:53:28.817Z,98350.59
2023-04-06T23:55:55.627Z,98344.50
2023-04-06T23:58:22.632Z,98342.56
